Time;durP1;ratioP1;P1;durP2;ratioP2;P2;SDS_P1;SDS_P2;PMS_P1;PMS_P2;Temp;Humidity;BMP_temperature;BMP_pressure;BME280_temperature;BME280_humidity;BME280_pressure;Samples;Min_cycle;Max_cycle;Signal;HPM_P1;HPM_P2
2021/05/17 00:01:01;;;;;;;10.75;5.00;;;;;;;12.90;59.73;99419.33;1654030;83;25626;-63
2021/05/17 00:03:30;;;;;;;14.20;5.40;;;;;;;12.87;59.75;99413.69;1657944;84;27887;-62
2021/05/17 00:06:01;;;;;;;6.95;4.40;;;;;;;12.81;59.85;99415.95;1636326;83;25979;-62
2021/05/17 00:08:32;;;;;;;8.23;5.22;;;;;;;12.78;59.94;99413.00;1652833;84;25616;-62
2021/05/17 00:11:03;;;;;;;7.17;4.75;;;;;;;12.73;60.04;99412.48;1654351;83;25701;-62
2021/05/17 00:13:32;;;;;;;22.52;5.00;;;;;;;12.69;60.18;99409.62;1633727;85;25656;-62
2021/05/17 00:16:01;;;;;;;10.23;5.78;;;;;;;12.67;60.29;99407.05;1644284;84;25833;-62
2021/05/17 00:18:31;;;;;;;8.70;4.45;;;;;;;12.62;60.37;99408.35;1634154;84;25888;-62
2021/05/17 00:21:00;;;;;;;12.47;4.67;;;;;;;12.60;60.49;99404.91;1650141;83;25803;-62
2021/05/17 00:23:32;;;;;;;7.95;5.08;;;;;;;12.57;60.54;99406.47;1679065;83;25722;-62
2021/05/17 00:26:02;;;;;;;8.53;4.65;;;;;;;12.52;60.63;99413.52;1703174;82;25637;-62
2021/05/17 00:28:31;;;;;;;7.92;4.90;;;;;;;12.48;60.77;99416.05;1620454;85;27328;-62
2021/05/17 00:31:02;;;;;;;10.60;5.72;;;;;;;12.46;60.83;99423.36;1675252;83;26185;-62
2021/05/17 00:33:32;;;;;;;;;;;;;;;12.43;60.96;99416.86;1689924;82;25796;-62
2021/05/17 00:36:01;;;;;;;8.25;4.70;;;;;;;12.42;61.17;99420.52;1661533;83;25759;-62
2021/05/17 00:38:30;;;;;;;12.05;4.83;;;;;;;12.37;61.11;99421.32;1648949;84;25624;-62
2021/05/17 00:40:59;;;;;;;9.10;5.08;;;;;;;12.37;61.12;99417.29;1658583;83;27255;-62
2021/05/17 00:43:38;;;;;;;6.92;4.65;;;;;;;12.35;61.18;99419.22;1715405;81;25641;-62
2021/05/17 00:46:13;;;;;;;10.63;4.37;;;;;;;12.34;61.26;99418.36;1689961;81;25808;-62
2021/05/17 00:48:43;;;;;;;11.73;5.12;;;;;;;12.33;61.34;99417.13;1719070;81;25623;-62
2021/05/17 00:51:15;;;;;;;10.75;5.10;;;;;;;12.32;61.40;99418.95;1730239;81;25558;-62
2021/05/17 00:53:44;;;;;;;10.00;5.30;;;;;;;12.30;61.47;99408.80;1722707;81;27437;-62
2021/05/17 00:56:14;;;;;;;9.05;5.05;;;;;;;12.28;61.54;99413.91;1697987;81;25807;-62
2021/05/17 00:58:45;;;;;;;13.50;5.92;;;;;;;12.24;61.57;99411.91;1718899;80;25637;-62
2021/05/17 01:01:18;;;;;;;8.98;4.83;;;;;;;12.24;61.73;99411.91;1702148;81;33917;-62
2021/05/17 01:03:48;;;;;;;6.53;4.95;;;;;;;12.22;61.77;99408.47;1718273;81;25576;-62
2021/05/17 01:06:24;;;;;;;7.08;4.60;;;;;;;12.19;61.81;99410.03;1656143;83;25649;-62
2021/05/17 01:09:11;;;;;;;11.25;4.80;;;;;;;12.18;61.91;99417.71;1719580;81;25587;-62
2021/05/17 01:11:40;;;;;;;10.40;5.15;;;;;;;12.16;61.97;99417.44;1712357;81;25635;-62
2021/05/17 01:14:16;;;;;;;6.92;5.00;;;;;;;12.14;61.99;99412.17;1689522;81;25647;-62
2021/05/17 01:16:46;;;;;;;7.03;4.40;;;;;;;12.12;62.12;99411.91;1727484;81;27172;-62
2021/05/17 01:19:30;;;;;;;10.75;5.00;;;;;;;12.12;62.15;99412.77;1725878;80;26246;-62
2021/05/17 01:22:34;;;;;;;12.10;5.83;;;;;;;12.11;62.30;99403.47;1715821;81;25868;-62
2021/05/17 01:24:49;;;;;;;6.75;4.70;;;;;;;12.10;62.40;99398.58;1680428;82;25731;-62
2021/05/17 01:27:21;;;;;;;9.85;5.25;;;;;;;12.10;62.40;99400.41;1678985;81;26272;-62
2021/05/17 01:29:50;;;;;;;7.10;4.83;;;;;;;12.06;62.49;99397.08;1684319;83;25575;-62
2021/05/17 01:32:21;;;;;;;9.75;5.00;;;;;;;12.05;62.52;99394.50;1697316;82;26420;-62
2021/05/17 01:34:51;;;;;;;9.58;5.00;;;;;;;12.02;62.59;99392.40;1699177;82;25842;-63
2021/05/17 01:37:29;;;;;;;9.03;4.67;;;;;;;11.97;62.69;99395.88;1681103;82;25723;-62
2021/05/17 01:40:01;;;;;;;7.87;4.92;;;;;;;11.95;62.68;99394.27;1691413;81;25769;-62
2021/05/17 01:42:41;;;;;;;8.20;4.72;;;;;;;11.91;62.88;99396.79;1721684;82;25694;-62
2021/05/17 01:45:13;;;;;;;8.15;4.90;;;;;;;11.87;62.91;99387.22;1674177;82;27517;-62
2021/05/17 01:47:45;;;;;;;9.23;5.22;;;;;;;11.84;62.94;99389.64;1706158;81;25578;-62
2021/05/17 01:50:20;;;;;;;27.85;6.10;;;;;;;11.82;63.04;99386.67;1678118;83;26092;-62
2021/05/17 01:52:51;;;;;;;13.80;5.62;;;;;;;11.79;63.03;99382.38;1702680;82;25741;-62
2021/05/17 01:55:21;;;;;;;10.23;4.70;;;;;;;11.76;63.14;99394.64;1683333;82;33270;-62
2021/05/17 01:58:07;;;;;;;7.92;5.00;;;;;;;11.74;63.18;99382.28;1709735;82;25782;-62
2021/05/17 02:00:36;;;;;;;10.40;5.20;;;;;;;11.73;63.30;99388.13;1673596;83;25813;-62
2021/05/17 02:03:07;;;;;;;10.40;5.67;;;;;;;11.74;63.37;99388.52;1682152;82;25673;-62
2021/05/17 02:05:37;;;;;;;11.80;5.47;;;;;;;11.73;63.44;99384.11;1700805;82;25671;-62
2021/05/17 02:08:10;;;;;;;10.50;4.65;;;;;;;11.74;63.51;99387.17;1672426;83;25780;-62
2021/05/17 02:10:41;;;;;;;8.23;5.28;;;;;;;11.75;63.54;99386.20;1683765;83;26530;-62
2021/05/17 02:13:23;;;;;;;10.45;5.37;;;;;;;11.75;63.60;99391.57;1679509;83;25837;-62
2021/05/17 02:15:54;;;;;;;9.98;5.62;;;;;;;11.73;63.59;99389.48;1675220;83;25703;-62
2021/05/17 02:18:25;;;;;;;11.75;5.65;;;;;;;11.70;63.83;99391.89;1701200;82;25831;-62
2021/05/17 02:20:54;;;;;;;11.12;5.90;;;;;;;11.69;63.88;99392.85;1676563;83;25748;-62
2021/05/17 02:23:25;;;;;;;9.38;5.40;;;;;;;11.69;63.94;99393.33;1674893;83;25814;-62
2021/05/17 02:25:56;;;;;;;8.85;5.00;;;;;;;11.65;63.92;99388.66;1680450;83;25793;-62
2021/05/17 02:28:26;;;;;;;10.98;5.97;;;;;;;11.61;63.93;99395.19;1678191;83;25695;-62
2021/05/17 02:30:56;;;;;;;8.70;5.22;;;;;;;11.59;64.02;99394.91;1697262;82;25949;-62
2021/05/17 02:33:26;;;;;;;9.55;5.33;;;;;;;11.53;64.07;99385.94;1680062;83;25709;-61
2021/05/17 02:35:56;;;;;;;10.80;5.78;;;;;;;11.50;64.21;99392.85;1705650;82;28257;-62
2021/05/17 02:38:25;;;;;;;8.88;5.03;;;;;;;11.51;64.36;99401.28;1704016;82;25836;-62
2021/05/17 02:40:57;;;;;;;10.30;5.65;;;;;;;11.52;64.48;99405.69;1674441;84;25844;-62
2021/05/17 02:43:29;;;;;;;9.15;5.40;;;;;;;11.52;64.51;99403.86;1684391;82;25798;-61
2021/05/17 02:46:02;;;;;;;10.65;5.53;;;;;;;11.54;64.51;99407.30;1677289;83;25917;-62
2021/05/17 02:48:40;;;;;;;12.95;6.20;;;;;;;11.52;64.53;99411.91;1672707;83;26075;-61
2021/05/17 02:51:12;;;;;;;10.28;5.45;;;;;;;11.48;64.54;99409.53;1655855;83;25950;-62
2021/05/17 02:54:00;;;;;;;10.00;5.53;;;;;;;11.45;64.63;99411.08;1670852;84;25755;-62
2021/05/17 02:56:47;;;;;;;8.98;5.17;;;;;;;11.39;64.68;99415.89;1703337;82;26496;-61
2021/05/17 02:59:33;;;;;;;9.73;5.05;;;;;;;11.36;64.78;99408.05;1692005;82;25683;-61
2021/05/17 03:02:08;;;;;;;10.15;4.65;;;;;;;11.35;64.86;99402.30;1577985;87;25804;-61
2021/05/17 03:04:40;;;;;;;9.78;5.50;;;;;;;11.33;64.90;99400.20;1608459;87;25897;-61
2021/05/17 03:07:14;;;;;;;8.13;4.58;;;;;;;11.34;64.90;99397.03;1575514;87;25971;-61
2021/05/17 03:09:48;;;;;;;9.73;5.10;;;;;;;11.29;64.95;99391.98;1586010;88;25805;-62
2021/05/17 03:12:22;;;;;;;14.58;5.33;;;;;;;11.28;65.00;99392.94;1545661;90;25626;-61
2021/05/17 03:14:51;;;;;;;11.57;4.67;;;;;;;11.25;65.08;99401.19;1595564;87;28476;-61
2021/05/17 03:17:19;;;;;;;8.03;5.00;;;;;;;11.24;65.24;99406.65;1605561;87;25867;-61
2021/05/17 03:19:50;;;;;;;12.95;5.22;;;;;;;11.23;65.31;99403.11;1589049;87;25712;-61
2021/05/17 03:22:23;;;;;;;14.18;5.08;;;;;;;11.23;65.30;99412.50;1605962;87;26371;-62
2021/05/17 03:24:55;;;;;;;16.10;5.97;;;;;;;11.22;65.32;99410.77;1592925;86;25860;-61
2021/05/17 03:27:27;;;;;;;13.75;5.08;;;;;;;11.21;65.46;99409.05;1687929;82;25848;-62
2021/05/17 03:29:59;;;;;;;12.03;5.10;;;;;;;11.24;65.45;99410.67;1677271;82;25786;-61
2021/05/17 03:32:29;;;;;;;11.90;7.17;;;;;;;11.22;65.46;99417.48;1713251;81;25825;-61
2021/05/17 03:35:00;;;;;;;13.45;5.83;;;;;;;11.21;65.54;99436.36;1696719;82;25664;-62
2021/05/17 03:37:28;;;;;;;9.98;5.55;;;;;;;11.16;65.52;99434.45;1722183;81;25580;-61
2021/05/17 03:40:03;;;;;;;11.10;5.55;;;;;;;11.13;65.60;99435.52;1703835;82;27371;-62
2021/05/17 03:42:32;;;;;;;9.05;5.37;;;;;;;11.10;65.67;99433.03;1689738;81;25709;-61
2021/05/17 03:45:06;;;;;;;14.93;6.62;;;;;;;11.08;65.73;99441.66;1726755;81;25897;-61
2021/05/17 03:47:36;;;;;;;12.78;5.83;;;;;;;11.09;65.89;99443.38;1677715;83;25729;-61
2021/05/17 03:50:08;;;;;;;10.48;5.20;;;;;;;11.11;65.85;99442.80;1718804;81;25794;-61
2021/05/17 03:52:42;;;;;;;13.58;5.47;;;;;;;11.14;66.04;99451.98;1698557;82;27475;-61
2021/05/17 03:55:14;;;;;;;7.53;5.17;;;;;;;11.20;66.10;99462.80;1678852;82;25752;-62
2021/05/17 03:57:46;;;;;;;8.20;5.30;;;;;;;11.25;66.08;99456.17;1718823;82;25938;-62
2021/05/17 04:00:16;;;;;;;10.48;7.00;;;;;;;11.28;66.18;99453.77;1706384;81;26195;-61
2021/05/17 04:02:47;;;;;;;12.58;5.80;;;;;;;11.30;66.30;99452.71;1686332;83;25704;-61
2021/05/17 04:05:40;;;;;;;11.63;5.28;;;;;;;11.37;66.45;99446.47;1699266;82;27508;-61
2021/05/17 04:08:24;;;;;;;9.05;4.85;;;;;;;11.45;66.43;99458.03;1696404;82;25822;-62
2021/05/17 04:13:27;;;;;;;11.50;4.70;;;;;;;11.55;66.59;99453.78;1710245;82;25978;-62
2021/05/17 04:15:56;;;;;;;8.25;5.75;;;;;;;11.60;66.75;99451.17;1675495;83;25687;-61
2021/05/17 04:18:26;;;;;;;13.58;5.15;;;;;;;11.69;66.80;99453.73;1678072;83;25633;-61
2021/05/17 04:20:56;;;;;;;9.40;4.50;;;;;;;11.78;66.79;99443.75;1684686;83;25652;-62
2021/05/17 04:23:28;;;;;;;14.50;4.50;;;;;;;11.87;66.74;99448.98;1685458;82;25858;-61
2021/05/17 04:25:59;;;;;;;11.05;4.50;;;;;;;11.93;66.71;99447.22;1678132;83;25733;-61
2021/05/17 04:28:28;;;;;;;13.28;4.80;;;;;;;11.98;66.82;99450.45;1683009;83;25747;-61
2021/05/17 04:30:58;;;;;;;11.15;5.08;;;;;;;12.05;66.73;99453.09;1691068;83;25653;-62
2021/05/17 04:33:27;;;;;;;10.10;4.95;;;;;;;12.14;66.79;99453.81;1673278;84;25779;-61
2021/05/17 04:35:56;;;;;;;11.83;4.60;;;;;;;12.22;66.78;99453.28;1673410;83;25921;-62
2021/05/17 04:38:25;;;;;;;9.95;5.40;;;;;;;12.26;66.79;99444.05;1700116;82;25821;-61
2021/05/17 04:40:56;;;;;;;12.68;5.10;;;;;;;12.42;66.68;99458.14;1677919;84;25848;-62
2021/05/17 04:43:25;;;;;;;12.73;5.27;;;;;;;12.53;66.73;99469.48;1676190;84;27490;-61
2021/05/17 04:45:56;;;;;;;9.70;4.85;;;;;;;12.62;66.67;99461.63;1672079;83;25794;-61
2021/05/17 04:48:25;;;;;;;7.43;4.67;;;;;;;12.70;66.58;99461.09;1668460;84;25898;-61
2021/05/17 04:50:54;;;;;;;8.80;4.78;;;;;;;12.68;66.45;99465.71;1698041;82;25909;-61
2021/05/17 04:53:24;;;;;;;14.53;5.40;;;;;;;12.67;66.52;99474.75;1677630;83;25656;-61
2021/05/17 04:55:52;;;;;;;15.32;5.15;;;;;;;12.71;66.48;99478.08;1695092;83;27681;-61
2021/05/17 04:58:22;;;;;;;9.60;4.78;;;;;;;12.73;66.52;99474.80;1701202;83;25777;-61
2021/05/17 05:00:51;;;;;;;8.18;5.00;;;;;;;12.83;66.56;99474.52;1674817;84;25808;-61
2021/05/17 05:03:21;;;;;;;8.78;4.62;;;;;;;12.93;66.55;99471.06;1661964;83;26354;-62
2021/05/17 05:05:50;;;;;;;10.43;4.30;;;;;;;12.99;66.39;99469.28;1635198;85;25761;-61
2021/05/17 05:08:20;;;;;;;11.48;5.35;;;;;;;12.98;66.24;99470.25;1644272;84;25831;-61
2021/05/17 05:10:50;;;;;;;9.80;4.15;;;;;;;13.00;66.25;99468.80;1629506;85;25878;-61
2021/05/17 05:13:21;;;;;;;10.47;4.57;;;;;;;13.06;66.19;99462.94;1664230;84;25998;-61
2021/05/17 05:15:53;;;;;;;8.35;4.70;;;;;;;13.13;66.13;99462.88;1644067;84;25658;-61
2021/05/17 05:18:22;;;;;;;9.05;4.30;;;;;;;13.20;66.04;99466.01;1636430;84;25835;-62
2021/05/17 05:20:50;;;;;;;8.30;4.03;;;;;;;13.25;65.96;99470.08;1658771;85;28138;-61
2021/05/17 05:23:21;;;;;;;11.43;4.60;;;;;;;13.31;65.87;99460.70;1664227;83;25687;-62
2021/05/17 05:31:31;;;;;;;11.53;4.40;;;;;;;13.38;65.63;99453.04;1640397;85;25837;-61
2021/05/17 05:34:01;;;;;;;11.60;4.72;;;;;;;13.37;65.57;99449.97;1628782;84;26500;-61
2021/05/17 05:36:30;;;;;;;10.85;4.50;;;;;;;13.37;65.51;99450.83;1617717;86;25728;-61
2021/05/17 05:38:59;;;;;;;21.73;4.97;;;;;;;13.41;65.54;99448.29;1616053;85;25670;-61
2021/05/17 05:41:30;;;;;;;14.28;5.83;;;;;;;13.46;65.41;99455.53;1651444;84;25925;-62
2021/05/17 05:44:00;;;;;;;19.70;4.85;;;;;;;13.45;65.38;99452.47;1681178;83;25578;-61
2021/05/17 05:46:32;;;;;;;29.17;6.70;;;;;;;13.47;65.38;99443.80;1624817;86;27339;-62
2021/05/17 05:49:03;;;;;;;24.50;5.80;;;;;;;13.50;65.32;99442.22;1664354;83;25766;-62
2021/05/17 05:51:32;;;;;;;13.55;5.08;;;;;;;13.53;65.28;99436.61;1662182;83;25651;-62
2021/05/17 05:54:02;;;;;;;13.38;5.08;;;;;;;13.57;65.22;99436.75;1645608;83;25692;-62
2021/05/17 05:56:32;;;;;;;11.57;4.87;;;;;;;13.64;65.21;99438.50;1660810;83;25907;-62
2021/05/17 05:59:00;;;;;;;9.45;5.08;;;;;;;13.69;65.14;99442.19;1654581;83;26557;-62
2021/05/17 06:01:27;;;;;;;33.50;6.00;;;;;;;13.74;65.09;99446.26;1657487;85;25593;-62
2021/05/17 06:03:58;;;;;;;19.65;5.55;;;;;;;13.80;65.06;99447.14;1655802;83;25833;-62
2021/05/17 06:06:28;;;;;;;16.85;5.00;;;;;;;13.87;65.03;99445.70;1680193;83;25753;-62
2021/05/17 06:08:59;;;;;;;22.70;5.08;;;;;;;13.91;64.91;99454.41;1634473;84;25724;-62
2021/05/17 06:11:31;;;;;;;12.68;4.85;;;;;;;13.97;64.88;99456.63;1678022;83;27303;-62
2021/05/17 06:14:02;;;;;;;15.10;5.00;;;;;;;14.01;64.79;99452.73;1653313;83;25835;-62
2021/05/17 06:16:33;;;;;;;19.10;5.30;;;;;;;14.03;64.72;99454.82;1677016;83;25803;-60
2021/05/17 06:19:08;;;;;;;13.75;4.95;;;;;;;14.07;64.72;99451.41;1654040;83;25911;-60
2021/05/17 06:21:40;;;;;;;11.88;4.92;;;;;;;14.12;64.67;99447.38;1613391;87;26316;-62
2021/05/17 06:24:17;;;;;;;11.78;4.87;;;;;;;14.19;64.64;99462.09;1662860;83;26638;-61
2021/05/17 06:26:47;;;;;;;14.10;4.47;;;;;;;14.27;64.59;99461.51;1656756;82;26009;-62
2021/05/17 06:29:16;;;;;;;20.80;5.45;;;;;;;14.36;64.51;99461.28;1679403;82;25778;-62
2021/05/17 06:31:48;;;;;;;27.25;6.92;;;;;;;14.43;64.43;99465.25;1646832;84;25700;-65
2021/05/17 06:34:20;;;;;;;11.75;4.55;;;;;;;14.52;64.38;99468.09;1656032;83;25821;-63
2021/05/17 06:36:50;;;;;;;17.73;4.47;;;;;;;14.60;64.30;99475.09;1646647;85;27801;-63
2021/05/17 06:39:18;;;;;;;12.13;4.55;;;;;;;14.67;64.16;99469.21;1676213;83;25659;-61
2021/05/17 06:41:49;;;;;;;12.90;4.80;;;;;;;14.71;64.06;99463.95;1639767;85;25885;-62
2021/05/17 06:44:21;;;;;;;10.78;4.62;;;;;;;14.76;63.99;99455.86;1678623;83;25691;-63
2021/05/17 06:46:51;;;;;;;12.40;4.60;;;;;;;14.81;63.89;99461.75;1672822;83;25959;-63
2021/05/17 06:49:22;;;;;;;11.00;4.45;;;;;;;14.87;63.86;99463.95;1658710;83;25766;-61
2021/05/17 06:51:53;;;;;;;;;;;;;;;14.95;63.80;99460.64;1686337;83;25619;-61
2021/05/17 06:54:27;;;;;;;16.65;4.30;;;;;;;15.04;63.67;99459.91;1697362;82;25640;-61
2021/05/17 06:57:17;;;;;;;8.13;4.08;;;;;;;15.08;63.59;99472.66;1698123;82;26200;-61
2021/05/17 06:59:47;;;;;;;9.75;4.17;;;;;;;15.14;63.50;99475.72;1672133;83;25724;-60
2021/05/17 07:02:23;;;;;;;9.43;4.40;;;;;;;15.17;63.41;99473.27;1653772;83;26137;-60
2021/05/17 07:05:01;;;;;;;10.98;4.70;;;;;;;15.22;63.32;99467.86;1641930;85;25909;-60
2021/05/17 07:07:59;;;;;;;15.33;4.53;;;;;;;15.25;63.23;99458.16;1656692;84;25726;-60
2021/05/17 07:13:10;;;;;;;9.17;4.33;;;;;;;15.33;63.11;99448.58;1703964;82;25661;-61
2021/05/17 07:15:39;;;;;;;11.30;4.42;;;;;;;15.33;63.02;99437.30;1695060;82;26006;-62
2021/05/17 07:18:08;;;;;;;9.05;3.98;;;;;;;15.36;62.96;99430.29;1665859;83;25783;-61
2021/05/17 07:26:11;;;;;;;8.30;3.87;;;;;;;15.51;62.79;99431.72;1640293;85;25803;-62
2021/05/17 07:28:43;;;;;;;12.23;4.50;;;;;;;15.59;62.66;99440.57;1648910;83;25934;-62
2021/05/17 07:31:14;;;;;;;9.25;3.60;;;;;;;15.66;62.55;99433.64;1663919;84;25803;-62
2021/05/17 07:33:47;;;;;;;13.53;3.65;;;;;;;15.69;62.40;99436.09;1634575;84;25888;-62
2021/05/17 07:36:19;;;;;;;11.93;4.00;;;;;;;15.71;62.32;99433.26;1631293;85;25997;-65
2021/05/17 07:38:50;;;;;;;15.55;4.15;;;;;;;15.69;62.17;99440.14;1664734;84;25804;-62
2021/05/17 07:41:20;;;;;;;15.00;4.50;;;;;;;15.68;62.15;99438.42;1651723;83;25724;-62
2021/05/17 07:43:50;;;;;;;16.87;4.50;;;;;;;15.74;62.17;99435.21;1622053;86;25858;-66
2021/05/17 07:46:19;;;;;;;11.15;3.45;;;;;;;15.83;62.09;99433.58;1628655;86;25965;-72
2021/05/17 07:51:42;;;;;;;16.55;3.70;;;;;;;16.01;61.77;99437.42;1647983;85;25798;-62
2021/05/17 07:54:15;;;;;;;10.45;3.35;;;;;;;16.13;61.79;99449.05;1636703;84;25776;-60
2021/05/17 07:56:47;;;;;;;10.10;3.35;;;;;;;16.20;60.91;99444.33;1693518;82;25743;-65
2021/05/17 07:59:15;;;;;;;27.60;4.40;;;;;;;16.18;61.21;99447.66;1683508;83;25661;-64
2021/05/17 08:01:46;;;;;;;25.75;3.50;;;;;;;16.13;61.03;99438.23;1668707;83;25836;-62
2021/05/17 08:04:16;;;;;;;;;;;;;;;16.24;60.99;99446.28;1671180;83;25728;-63
2021/05/17 08:06:45;;;;;;;16.73;3.62;;;;;;;16.34;60.88;99455.31;1648822;84;25938;-62
2021/05/17 08:09:14;;;;;;;5.75;2.50;;;;;;;16.45;60.86;99448.48;1638756;84;25897;-62
2021/05/17 08:11:46;;;;;;;8.10;2.40;;;;;;;16.57;60.40;99441.16;1660793;84;25395;-62
2021/05/17 08:14:17;;;;;;;6.35;2.60;;;;;;;16.65;59.98;99448.63;1622077;85;25606;-63
2021/05/17 08:16:49;;;;;;;4.87;2.35;;;;;;;16.70;59.96;99450.44;1610241;86;26034;-64
2021/05/17 08:19:18;;;;;;;7.90;2.33;;;;;;;16.79;59.81;99446.92;1639625;85;29549;-63
2021/05/17 08:21:48;;;;;;;3.58;1.90;;;;;;;16.81;59.46;99447.65;1641501;85;26044;-62
2021/05/17 08:24:18;;;;;;;5.92;1.95;;;;;;;16.88;58.74;99452.38;1650641;85;25712;-62
2021/05/17 08:26:47;;;;;;;13.38;2.55;;;;;;;16.95;58.94;99451.34;1652834;84;26282;-63
2021/05/17 08:29:19;;;;;;;8.98;2.40;;;;;;;17.02;58.75;99460.64;1676987;83;25848;-63
2021/05/17 08:31:55;;;;;;;6.80;2.30;;;;;;;17.07;58.27;99459.73;1676353;82;25704;-62
2021/05/17 08:34:24;;;;;;;6.25;2.17;;;;;;;17.10;57.96;99466.23;1675291;83;26195;-63
2021/05/17 08:36:56;;;;;;;11.85;1.90;;;;;;;17.25;58.00;99461.30;1670587;82;25715;-63
2021/05/17 08:39:25;;;;;;;5.30;2.12;;;;;;;17.43;57.83;99458.78;1655667;83;25746;-62
2021/05/17 08:41:57;;;;;;;10.17;3.60;;;;;;;17.66;57.64;99454.01;1663617;83;25890;-62
2021/05/17 08:44:29;;;;;;;3.95;2.70;;;;;;;17.81;57.26;99467.02;1646919;84;26578;-63
2021/05/17 08:47:00;;;;;;;8.48;2.20;;;;;;;17.93;56.76;99470.95;1657218;83;25815;-63
2021/05/17 08:49:30;;;;;;;7.83;2.30;;;;;;;17.90;56.71;99468.52;1619928;85;25787;-63
2021/05/17 08:52:00;;;;;;;3.80;1.77;;;;;;;17.84;56.31;99467.23;1621141;85;26847;-64
2021/05/17 08:54:31;;;;;;;4.42;1.72;;;;;;;17.81;55.96;99464.30;1608090;86;25862;-64
2021/05/17 08:56:59;;;;;;;7.08;1.72;;;;;;;17.84;55.77;99459.95;1621443;85;27437;-64
2021/05/17 08:59:29;;;;;;;7.35;1.85;;;;;;;17.93;55.17;99466.87;1612982;86;26118;-63
2021/05/17 09:02:00;;;;;;;8.75;2.02;;;;;;;17.89;55.23;99469.02;1608402;86;25681;-63
2021/05/17 09:04:31;;;;;;;7.35;2.25;;;;;;;17.79;54.35;99460.87;1591749;86;25640;-62
2021/05/17 09:07:00;;;;;;;37.33;3.72;;;;;;;17.74;54.12;99462.30;1611559;85;26040;-62
2021/05/17 09:09:38;;;;;;;8.55;1.70;;;;;;;17.74;53.80;99450.09;1651842;83;25801;-63
2021/05/17 09:12:10;;;;;;;6.58;1.77;;;;;;;17.70;53.36;99458.16;1663747;83;25668;-63
2021/05/17 09:14:41;;;;;;;3.20;1.52;;;;;;;17.70;53.55;99459.51;1667906;84;25819;-63
2021/05/17 09:17:12;;;;;;;2.67;1.35;;;;;;;17.73;53.26;99461.94;1677721;83;25590;-62
2021/05/17 09:19:41;;;;;;;;;;;;;;;17.74;52.54;99453.67;1625510;83;25739;-62
2021/05/17 09:22:15;;;;;;;4.62;1.75;;;;;;;17.79;52.52;99450.53;1632812;85;26322;-67
2021/05/17 09:25:01;;;;;;;7.25;1.37;;;;;;;17.87;52.48;99449.83;1684888;82;26182;-63
2021/05/17 09:27:31;;;;;;;9.68;1.65;;;;;;;17.94;52.24;99452.33;1672341;82;25783;-62
2021/05/17 09:30:04;;;;;;;6.12;1.67;;;;;;;17.91;51.63;99458.03;1679656;83;25621;-62
2021/05/17 09:32:40;;;;;;;8.35;1.70;;;;;;;17.89;51.70;99457.31;1674988;82;25763;-62
2021/05/17 09:35:20;;;;;;;3.62;1.80;;;;;;;17.91;51.77;99448.05;1692766;83;27862;-63
2021/05/17 09:38:06;;;;;;;5.57;2.10;;;;;;;17.99;51.61;99467.17;1667462;83;25795;-61
2021/05/17 09:40:36;;;;;;;2.67;1.25;;;;;;;18.01;51.40;99457.53;1671900;83;25686;-62
2021/05/17 09:43:12;;;;;;;8.78;2.50;;;;;;;18.11;51.28;99452.97;1676333;83;25820;-63
2021/05/17 09:45:44;;;;;;;5.95;2.00;;;;;;;18.24;51.25;99463.49;1693891;82;25767;-62
2021/05/17 09:48:24;;;;;;;5.45;1.55;;;;;;;18.33;51.06;99458.05;1677627;83;26012;-62
2021/05/17 09:51:27;;;;;;;;;;;;;;;;;;;;;
2021/05/17 09:53:50;;;;;;;7.90;1.60;;;;;;;18.41;51.00;99453.27;1629498;86;25681;-62
2021/05/17 09:56:23;;;;;;;19.80;1.90;;;;;;;18.58;50.79;99458.45;1678204;83;25809;-62
2021/05/17 09:59:00;;;;;;;12.20;1.67;;;;;;;18.58;50.40;99457.95;1693353;83;25714;-61
2021/05/17 10:01:29;;;;;;;6.40;1.85;;;;;;;18.50;50.22;99446.46;1674704;82;26441;-65
2021/05/17 10:04:05;;;;;;;3.87;1.95;;;;;;;18.54;50.33;99461.95;1697190;82;25753;-62
2021/05/17 10:06:34;;;;;;;4.90;1.50;;;;;;;18.57;50.37;99456.73;1663520;83;25814;-64
2021/05/17 10:09:04;;;;;;;5.20;1.45;;;;;;;18.72;50.23;99452.59;1680960;83;25646;-62
2021/05/17 10:11:33;;;;;;;11.18;2.12;;;;;;;18.94;49.65;99454.94;1656685;84;25658;-63
2021/05/17 10:14:04;;;;;;;7.65;1.40;;;;;;;18.96;49.05;99469.23;1668691;84;26049;-64
2021/05/17 10:16:35;;;;;;;19.45;2.10;;;;;;;18.88;49.07;99465.54;1647123;84;26017;-65
2021/05/17 10:19:05;;;;;;;5.00;1.62;;;;;;;18.83;48.60;99471.41;1711638;81;25664;-62
2021/05/17 10:21:34;;;;;;;4.72;1.72;;;;;;;18.93;48.79;99481.74;1701537;82;25664;-62
2021/05/17 10:24:05;;;;;;;5.70;1.42;;;;;;;19.05;48.86;99477.84;1711295;81;25583;-62
2021/05/17 10:26:36;;;;;;;3.37;1.10;;;;;;;19.12;48.72;99468.09;1717175;81;27505;-64
2021/05/17 10:29:06;;;;;;;4.00;1.30;;;;;;;19.21;48.73;99468.20;1671043;82;25907;-62
2021/05/17 10:31:35;;;;;;;7.30;1.70;;;;;;;19.12;47.15;99472.67;1657012;81;25603;-62
2021/05/17 10:34:10;;;;;;;15.13;2.17;;;;;;;18.83;48.05;99435.27;1708319;81;25720;-62
2021/05/17 10:37:02;;;;;;;2.27;1.00;;;;;;;19.10;47.79;99461.09;1715815;81;26113;-62
2021/05/17 10:39:45;;;;;;;11.35;1.50;;;;;;;19.18;47.75;99454.91;1702931;82;26637;-62
2021/05/17 10:42:22;;;;;;;6.25;1.20;;;;;;;19.30;47.05;99457.78;1688454;82;26564;-62
2021/05/17 10:48:31;;;;;;;4.62;1.72;;;;;;;19.70;46.85;99452.86;1704159;82;25754;-61
2021/05/17 10:51:20;;;;;;;7.70;0.98;;;;;;;19.87;46.70;99449.80;1671941;83;25650;-61
2021/05/17 10:53:58;;;;;;;8.18;1.15;;;;;;;20.06;46.01;99452.87;1709058;82;26443;-64
2021/05/17 10:56:57;;;;;;;5.83;1.32;;;;;;;20.12;45.84;99454.97;1681762;83;25853;-62
2021/05/17 11:02:34;;;;;;;5.03;1.37;;;;;;;20.15;45.20;99438.34;1693220;83;25678;-61
2021/05/17 11:05:21;;;;;;;3.33;1.02;;;;;;;20.28;45.16;99439.30;1681978;82;25840;-60
2021/05/17 11:07:56;;;;;;;6.87;1.00;;;;;;;20.41;44.67;99447.43;1667460;83;26538;-61
2021/05/17 11:10:37;;;;;;;2.40;1.40;;;;;;;20.37;44.49;99451.45;1705089;81;25905;-61
2021/05/17 11:13:25;;;;;;;8.35;1.60;;;;;;;20.32;43.84;99441.55;1677677;82;25609;-62
2021/05/17 11:16:12;;;;;;;12.30;1.75;;;;;;;20.32;44.64;99440.69;1697797;82;25826;-62
2021/05/17 11:18:51;;;;;;;7.15;1.52;;;;;;;20.32;44.64;99440.69;1693386;82;25738;-62
2021/05/17 11:21:29;;;;;;;4.60;1.50;;;;;;;20.32;44.11;99444.27;1665435;82;27846;-62
2021/05/17 11:24:04;;;;;;;7.45;2.05;;;;;;;20.23;43.81;99450.66;1674990;83;25728;-67
2021/05/17 11:26:55;;;;;;;7.33;1.32;;;;;;;20.04;43.28;99447.59;1672432;84;25728;-76
2021/05/17 11:29:38;;;;;;;12.85;2.87;;;;;;;19.95;43.47;99459.41;1667214;83;25713;-69
2021/05/17 11:32:11;;;;;;;6.42;1.12;;;;;;;19.95;43.47;99459.41;1690433;82;25903;-64
2021/05/17 11:35:00;;;;;;;6.37;1.52;;;;;;;19.87;43.77;99458.47;1672401;83;25736;-64
2021/05/17 11:37:32;;;;;;;4.15;1.40;;;;;;;19.71;44.12;99439.62;1679328;83;25791;-64
2021/05/17 11:40:24;;;;;;;4.05;1.87;;;;;;;19.88;43.53;99462.89;1680947;83;25738;-65
2021/05/17 11:42:59;;;;;;;3.95;1.35;;;;;;;19.88;43.53;99462.89;1688505;82;25850;-64
2021/05/17 11:45:39;;;;;;;7.53;1.50;;;;;;;19.90;43.80;99459.02;1661848;84;25714;-65
2021/05/17 11:48:08;;;;;;;3.05;1.10;;;;;;;19.90;43.30;99467.67;1675878;83;25923;-65
2021/05/17 11:50:37;;;;;;;4.20;1.30;;;;;;;19.81;43.14;99474.04;1697396;83;25778;-65
2021/05/17 11:53:14;;;;;;;5.40;0.95;;;;;;;19.72;43.33;99465.80;1665529;83;25602;-65
2021/05/17 11:55:51;;;;;;;5.28;1.32;;;;;;;19.73;43.10;99471.58;1674857;83;25585;-64
2021/05/17 11:58:24;;;;;;;2.20;1.00;;;;;;;19.78;43.07;99475.20;1671147;83;25604;-64
2021/05/17 12:01:19;;;;;;;5.83;1.30;;;;;;;19.84;42.93;99477.81;1675019;83;25739;-65
2021/05/17 12:03:47;;;;;;;3.52;0.90;;;;;;;19.77;42.48;99477.57;1700389;82;25852;-64
2021/05/17 12:06:16;;;;;;;1.60;0.82;;;;;;;19.76;42.93;99484.88;1619134;84;25751;-64
2021/05/17 12:08:46;;;;;;;2.12;0.90;;;;;;;19.84;42.49;99484.61;1637933;85;25827;-64
2021/05/17 12:11:14;;;;;;;6.22;1.30;;;;;;;19.82;42.66;99494.28;1630824;85;25689;-63
2021/05/17 12:13:47;;;;;;;4.22;1.02;;;;;;;19.83;42.46;99497.34;1596942;87;26774;-62
2021/05/17 12:16:25;;;;;;;4.90;1.42;;;;;;;19.72;42.37;99498.42;1621111;85;25981;-62
2021/05/17 12:19:00;;;;;;;5.42;1.20;;;;;;;19.68;42.49;99509.25;1653040;84;25845;-63
2021/05/17 12:21:43;;;;;;;4.20;1.37;;;;;;;19.64;42.58;99511.06;1686276;83;25866;-62
2021/05/17 12:24:24;;;;;;;5.45;1.17;;;;;;;19.70;42.74;99512.67;1680141;82;25819;-64